sensor_id;sensor_type;location;lat;lon;timestamp;P1;durP1;ratioP1;P2;durP2;ratioP2
18265;SDS011;9259;48.194;16.322;2024-01-30T00:01:08;29.70;;;12.57;;
18265;SDS011;9259;48.194;16.322;2024-01-30T00:03:36;28.73;;;11.70;;
18265;SDS011;9259;48.194;16.322;2024-01-30T00:06:05;30.57;;;12.37;;
18265;SDS011;9259;48.194;16.322;2024-01-30T00:08:33;27.13;;;11.73;;
18265;SDS011;9259;48.194;16.322;2024-01-30T00:11:01;30.20;;;12.83;;
18265;SDS011;9259;48.194;16.322;2024-01-30T00:13:29;30.50;;;11.97;;
18265;SDS011;9259;48.194;16.322;2024-01-30T00:15:57;28.10;;;12.07;;
18265;SDS011;9259;48.194;16.322;2024-01-30T00:18:27;30.97;;;12.00;;
18265;SDS011;9259;48.194;16.322;2024-01-30T00:20:55;30.93;;;12.27;;
18265;SDS011;9259;48.194;16.322;2024-01-30T00:23:23;26.23;;;11.60;;
18265;SDS011;9259;48.194;16.322;2024-01-30T00:25:51;30.27;;;12.30;;
18265;SDS011;9259;48.194;16.322;2024-01-30T00:28:19;31.43;;;11.83;;
18265;SDS011;9259;48.194;16.322;2024-01-30T00:30:47;31.90;;;11.70;;
18265;SDS011;9259;48.194;16.322;2024-01-30T00:33:15;27.57;;;11.73;;
18265;SDS011;9259;48.194;16.322;2024-01-30T00:35:44;25.53;;;11.70;;
18265;SDS011;9259;48.194;16.322;2024-01-30T00:38:12;33.90;;;12.53;;
18265;SDS011;9259;48.194;16.322;2024-01-30T00:40:40;23.33;;;10.27;;
18265;SDS011;9259;48.194;16.322;2024-01-30T00:43:08;36.27;;;12.30;;
18265;SDS011;9259;48.194;16.322;2024-01-30T00:45:36;34.90;;;12.70;;
18265;SDS011;9259;48.194;16.322;2024-01-30T00:48:05;29.73;;;12.07;;
18265;SDS011;9259;48.194;16.322;2024-01-30T00:50:39;31.30;;;11.77;;
18265;SDS011;9259;48.194;16.322;2024-01-30T00:53:08;25.63;;;11.43;;
18265;SDS011;9259;48.194;16.322;2024-01-30T00:55:37;24.70;;;10.43;;
18265;SDS011;9259;48.194;16.322;2024-01-30T00:58:05;28.07;;;10.50;;
18265;SDS011;9259;48.194;16.322;2024-01-30T01:00:33;28.00;;;12.07;;
18265;SDS011;9259;48.194;16.322;2024-01-30T01:03:01;26.53;;;11.43;;
18265;SDS011;9259;48.194;16.322;2024-01-30T01:05:29;29.97;;;10.73;;
18265;SDS011;9259;48.194;16.322;2024-01-30T01:07:57;27.17;;;12.13;;
18265;SDS011;9259;48.194;16.322;2024-01-30T01:10:26;20.87;;;8.67;;
18265;SDS011;9259;48.194;16.322;2024-01-30T01:12:54;29.27;;;11.60;;
18265;SDS011;9259;48.194;16.322;2024-01-30T01:15:22;31.83;;;11.60;;
18265;SDS011;9259;48.194;16.322;2024-01-30T01:17:50;26.47;;;11.63;;
18265;SDS011;9259;48.194;16.322;2024-01-30T01:20:18;29.27;;;11.67;;
18265;SDS011;9259;48.194;16.322;2024-01-30T01:22:47;31.47;;;12.43;;
18265;SDS011;9259;48.194;16.322;2024-01-30T01:25:15;27.67;;;12.00;;
18265;SDS011;9259;48.194;16.322;2024-01-30T01:27:44;26.47;;;12.07;;
18265;SDS011;9259;48.194;16.322;2024-01-30T01:30:17;28.53;;;10.90;;
18265;SDS011;9259;48.194;16.322;2024-01-30T01:32:47;33.30;;;13.17;;
18265;SDS011;9259;48.194;16.322;2024-01-30T01:35:21;26.47;;;13.17;;
18265;SDS011;9259;48.194;16.322;2024-01-30T01:37:50;26.10;;;10.43;;
18265;SDS011;9259;48.194;16.322;2024-01-30T01:40:21;26.67;;;10.83;;
18265;SDS011;9259;48.194;16.322;2024-01-30T01:42:51;36.23;;;12.33;;
18265;SDS011;9259;48.194;16.322;2024-01-30T01:45:19;27.17;;;11.57;;
18265;SDS011;9259;48.194;16.322;2024-01-30T01:47:49;31.20;;;13.23;;
18265;SDS011;9259;48.194;16.322;2024-01-30T01:50:18;27.47;;;12.23;;
18265;SDS011;9259;48.194;16.322;2024-01-30T01:52:47;35.70;;;12.83;;
18265;SDS011;9259;48.194;16.322;2024-01-30T01:55:15;28.60;;;12.40;;
18265;SDS011;9259;48.194;16.322;2024-01-30T01:57:47;31.63;;;11.20;;
18265;SDS011;9259;48.194;16.322;2024-01-30T02:00:16;26.40;;;10.93;;
18265;SDS011;9259;48.194;16.322;2024-01-30T02:02:46;32.27;;;12.20;;
18265;SDS011;9259;48.194;16.322;2024-01-30T02:05:14;35.37;;;12.70;;
18265;SDS011;9259;48.194;16.322;2024-01-30T02:07:42;31.67;;;12.57;;
18265;SDS011;9259;48.194;16.322;2024-01-30T02:10:11;26.63;;;12.10;;
18265;SDS011;9259;48.194;16.322;2024-01-30T02:12:39;27.43;;;10.87;;
18265;SDS011;9259;48.194;16.322;2024-01-30T02:15:07;32.73;;;13.30;;
18265;SDS011;9259;48.194;16.322;2024-01-30T02:17:37;30.70;;;11.80;;
18265;SDS011;9259;48.194;16.322;2024-01-30T02:20:05;19.07;;;9.13;;
18265;SDS011;9259;48.194;16.322;2024-01-30T02:22:36;30.60;;;12.73;;
18265;SDS011;9259;48.194;16.322;2024-01-30T02:25:04;28.23;;;12.23;;
18265;SDS011;9259;48.194;16.322;2024-01-30T02:27:32;30.70;;;13.10;;
18265;SDS011;9259;48.194;16.322;2024-01-30T02:30:00;29.00;;;12.93;;
18265;SDS011;9259;48.194;16.322;2024-01-30T02:32:28;35.03;;;13.53;;
18265;SDS011;9259;48.194;16.322;2024-01-30T02:34:56;28.27;;;12.20;;
18265;SDS011;9259;48.194;16.322;2024-01-30T02:37:24;27.43;;;12.87;;
18265;SDS011;9259;48.194;16.322;2024-01-30T02:39:53;28.07;;;12.03;;
18265;SDS011;9259;48.194;16.322;2024-01-30T02:42:21;29.27;;;12.40;;
18265;SDS011;9259;48.194;16.322;2024-01-30T02:44:48;31.93;;;12.23;;
18265;SDS011;9259;48.194;16.322;2024-01-30T02:47:16;29.60;;;12.70;;
18265;SDS011;9259;48.194;16.322;2024-01-30T02:49:44;28.43;;;12.53;;
18265;SDS011;9259;48.194;16.322;2024-01-30T02:52:12;27.83;;;13.20;;
18265;SDS011;9259;48.194;16.322;2024-01-30T02:54:40;30.43;;;12.03;;
18265;SDS011;9259;48.194;16.322;2024-01-30T02:57:10;29.60;;;10.27;;
18265;SDS011;9259;48.194;16.322;2024-01-30T02:59:38;29.53;;;11.67;;
18265;SDS011;9259;48.194;16.322;2024-01-30T03:02:06;34.47;;;13.50;;
18265;SDS011;9259;48.194;16.322;2024-01-30T03:04:34;36.40;;;13.57;;
18265;SDS011;9259;48.194;16.322;2024-01-30T03:07:02;31.33;;;12.83;;
18265;SDS011;9259;48.194;16.322;2024-01-30T03:09:30;31.93;;;12.17;;
18265;SDS011;9259;48.194;16.322;2024-01-30T03:11:58;36.00;;;12.80;;
18265;SDS011;9259;48.194;16.322;2024-01-30T03:14:28;25.77;;;12.63;;
18265;SDS011;9259;48.194;16.322;2024-01-30T03:16:57;29.60;;;12.93;;
18265;SDS011;9259;48.194;16.322;2024-01-30T03:19:25;27.80;;;12.30;;
18265;SDS011;9259;48.194;16.322;2024-01-30T03:21:53;29.40;;;13.07;;
18265;SDS011;9259;48.194;16.322;2024-01-30T03:24:21;31.03;;;12.47;;
18265;SDS011;9259;48.194;16.322;2024-01-30T03:26:49;37.13;;;13.20;;
18265;SDS011;9259;48.194;16.322;2024-01-30T03:29:17;25.97;;;11.93;;
18265;SDS011;9259;48.194;16.322;2024-01-30T03:31:46;36.00;;;13.17;;
18265;SDS011;9259;48.194;16.322;2024-01-30T03:34:14;28.33;;;12.73;;
18265;SDS011;9259;48.194;16.322;2024-01-30T03:36:42;29.27;;;12.83;;
18265;SDS011;9259;48.194;16.322;2024-01-30T03:39:10;26.57;;;12.27;;
18265;SDS011;9259;48.194;16.322;2024-01-30T03:41:41;29.00;;;12.47;;
18265;SDS011;9259;48.194;16.322;2024-01-30T03:44:10;26.80;;;12.50;;
18265;SDS011;9259;48.194;16.322;2024-01-30T03:46:38;33.33;;;13.40;;
18265;SDS011;9259;48.194;16.322;2024-01-30T03:49:07;32.03;;;13.40;;
18265;SDS011;9259;48.194;16.322;2024-01-30T03:51:36;29.57;;;13.20;;
18265;SDS011;9259;48.194;16.322;2024-01-30T03:54:04;33.47;;;13.53;;
18265;SDS011;9259;48.194;16.322;2024-01-30T03:56:32;33.07;;;13.97;;
18265;SDS011;9259;48.194;16.322;2024-01-30T03:59:00;32.90;;;13.77;;
18265;SDS011;9259;48.194;16.322;2024-01-30T04:01:29;39.90;;;14.67;;
18265;SDS011;9259;48.194;16.322;2024-01-30T04:03:57;29.30;;;13.57;;
18265;SDS011;9259;48.194;16.322;2024-01-30T04:06:26;32.67;;;13.73;;
18265;SDS011;9259;48.194;16.322;2024-01-30T04:08:54;32.10;;;12.90;;
18265;SDS011;9259;48.194;16.322;2024-01-30T04:11:22;29.47;;;12.90;;
18265;SDS011;9259;48.194;16.322;2024-01-30T04:13:50;31.67;;;14.23;;
18265;SDS011;9259;48.194;16.322;2024-01-30T04:16:19;38.27;;;13.83;;
18265;SDS011;9259;48.194;16.322;2024-01-30T04:18:47;32.23;;;14.33;;
18265;SDS011;9259;48.194;16.322;2024-01-30T04:21:16;31.90;;;13.47;;
18265;SDS011;9259;48.194;16.322;2024-01-30T04:23:45;33.23;;;14.03;;
18265;SDS011;9259;48.194;16.322;2024-01-30T04:26:13;33.70;;;14.07;;
18265;SDS011;9259;48.194;16.322;2024-01-30T04:28:41;35.57;;;14.83;;
18265;SDS011;9259;48.194;16.322;2024-01-30T04:31:11;35.90;;;15.13;;
18265;SDS011;9259;48.194;16.322;2024-01-30T04:33:39;36.27;;;14.70;;
18265;SDS011;9259;48.194;16.322;2024-01-30T04:36:08;32.20;;;14.27;;
18265;SDS011;9259;48.194;16.322;2024-01-30T04:38:37;42.43;;;15.83;;
18265;SDS011;9259;48.194;16.322;2024-01-30T04:41:06;33.83;;;14.33;;
18265;SDS011;9259;48.194;16.322;2024-01-30T04:43:34;32.60;;;14.03;;
18265;SDS011;9259;48.194;16.322;2024-01-30T04:46:03;40.07;;;16.93;;
18265;SDS011;9259;48.194;16.322;2024-01-30T04:48:32;37.37;;;15.47;;
18265;SDS011;9259;48.194;16.322;2024-01-30T04:50:59;39.47;;;15.33;;
18265;SDS011;9259;48.194;16.322;2024-01-30T04:53:29;39.90;;;16.23;;
18265;SDS011;9259;48.194;16.322;2024-01-30T04:55:57;36.90;;;15.57;;
18265;SDS011;9259;48.194;16.322;2024-01-30T04:58:27;35.83;;;15.10;;
18265;SDS011;9259;48.194;16.322;2024-01-30T05:00:54;35.30;;;15.27;;
18265;SDS011;9259;48.194;16.322;2024-01-30T05:03:22;40.37;;;16.63;;
18265;SDS011;9259;48.194;16.322;2024-01-30T05:05:51;40.07;;;16.93;;
18265;SDS011;9259;48.194;16.322;2024-01-30T05:08:19;39.67;;;17.33;;
18265;SDS011;9259;48.194;16.322;2024-01-30T05:10:47;42.90;;;17.03;;
18265;SDS011;9259;48.194;16.322;2024-01-30T05:13:15;38.23;;;16.60;;
18265;SDS011;9259;48.194;16.322;2024-01-30T05:15:44;39.70;;;16.90;;
18265;SDS011;9259;48.194;16.322;2024-01-30T05:18:12;39.57;;;16.00;;
18265;SDS011;9259;48.194;16.322;2024-01-30T05:20:40;43.77;;;16.20;;
18265;SDS011;9259;48.194;16.322;2024-01-30T05:23:08;41.03;;;17.23;;
18265;SDS011;9259;48.194;16.322;2024-01-30T05:25:36;39.00;;;16.43;;
18265;SDS011;9259;48.194;16.322;2024-01-30T05:28:05;43.90;;;17.47;;
18265;SDS011;9259;48.194;16.322;2024-01-30T05:30:33;38.10;;;17.07;;
18265;SDS011;9259;48.194;16.322;2024-01-30T05:33:02;35.27;;;15.47;;
18265;SDS011;9259;48.194;16.322;2024-01-30T05:35:31;46.67;;;17.90;;
18265;SDS011;9259;48.194;16.322;2024-01-30T05:37:58;47.77;;;16.27;;
18265;SDS011;9259;48.194;16.322;2024-01-30T05:40:26;34.40;;;16.00;;
18265;SDS011;9259;48.194;16.322;2024-01-30T05:42:54;41.77;;;17.53;;
18265;SDS011;9259;48.194;16.322;2024-01-30T05:45:23;41.27;;;16.40;;
18265;SDS011;9259;48.194;16.322;2024-01-30T05:47:51;42.13;;;16.00;;
18265;SDS011;9259;48.194;16.322;2024-01-30T05:50:21;43.90;;;17.20;;
18265;SDS011;9259;48.194;16.322;2024-01-30T05:52:51;40.17;;;16.83;;
18265;SDS011;9259;48.194;16.322;2024-01-30T05:55:19;41.43;;;16.50;;
18265;SDS011;9259;48.194;16.322;2024-01-30T05:57:47;41.23;;;16.40;;
18265;SDS011;9259;48.194;16.322;2024-01-30T06:00:15;48.10;;;17.43;;
18265;SDS011;9259;48.194;16.322;2024-01-30T06:02:44;37.60;;;16.83;;
18265;SDS011;9259;48.194;16.322;2024-01-30T06:05:12;37.00;;;16.00;;
18265;SDS011;9259;48.194;16.322;2024-01-30T06:07:41;35.20;;;16.43;;
18265;SDS011;9259;48.194;16.322;2024-01-30T06:10:09;47.57;;;17.53;;
18265;SDS011;9259;48.194;16.322;2024-01-30T06:12:37;39.00;;;16.13;;
18265;SDS011;9259;48.194;16.322;2024-01-30T06:15:05;42.90;;;17.67;;
18265;SDS011;9259;48.194;16.322;2024-01-30T06:17:34;33.93;;;15.90;;
18265;SDS011;9259;48.194;16.322;2024-01-30T06:20:02;40.77;;;16.37;;
18265;SDS011;9259;48.194;16.322;2024-01-30T06:22:31;40.33;;;15.73;;
18265;SDS011;9259;48.194;16.322;2024-01-30T06:25:01;41.13;;;16.20;;
18265;SDS011;9259;48.194;16.322;2024-01-30T06:27:29;40.50;;;16.97;;
18265;SDS011;9259;48.194;16.322;2024-01-30T06:29:57;42.53;;;16.70;;
18265;SDS011;9259;48.194;16.322;2024-01-30T06:32:25;35.53;;;15.57;;
18265;SDS011;9259;48.194;16.322;2024-01-30T06:34:54;34.67;;;16.43;;
18265;SDS011;9259;48.194;16.322;2024-01-30T06:37:22;39.37;;;17.53;;
18265;SDS011;9259;48.194;16.322;2024-01-30T06:39:50;42.30;;;17.27;;
18265;SDS011;9259;48.194;16.322;2024-01-30T06:42:20;45.03;;;16.73;;
18265;SDS011;9259;48.194;16.322;2024-01-30T06:44:48;41.07;;;17.00;;
18265;SDS011;9259;48.194;16.322;2024-01-30T06:47:16;41.77;;;16.13;;
18265;SDS011;9259;48.194;16.322;2024-01-30T06:49:44;34.23;;;15.97;;
18265;SDS011;9259;48.194;16.322;2024-01-30T06:52:12;39.93;;;16.00;;
18265;SDS011;9259;48.194;16.322;2024-01-30T06:54:40;40.90;;;16.00;;
18265;SDS011;9259;48.194;16.322;2024-01-30T06:57:08;40.07;;;16.23;;
18265;SDS011;9259;48.194;16.322;2024-01-30T06:59:40;36.60;;;15.67;;
18265;SDS011;9259;48.194;16.322;2024-01-30T07:02:09;39.37;;;15.13;;
18265;SDS011;9259;48.194;16.322;2024-01-30T07:04:37;32.03;;;14.37;;
18265;SDS011;9259;48.194;16.322;2024-01-30T07:07:05;36.47;;;13.83;;
18265;SDS011;9259;48.194;16.322;2024-01-30T07:09:38;33.77;;;14.40;;
18265;SDS011;9259;48.194;16.322;2024-01-30T07:12:06;35.03;;;13.83;;
18265;SDS011;9259;48.194;16.322;2024-01-30T07:14:35;30.23;;;14.20;;
18265;SDS011;9259;48.194;16.322;2024-01-30T07:17:05;32.67;;;13.63;;
18265;SDS011;9259;48.194;16.322;2024-01-30T07:19:33;29.63;;;13.23;;
18265;SDS011;9259;48.194;16.322;2024-01-30T07:22:01;27.73;;;12.53;;
18265;SDS011;9259;48.194;16.322;2024-01-30T07:24:29;30.27;;;12.80;;
18265;SDS011;9259;48.194;16.322;2024-01-30T07:26:57;29.47;;;12.80;;
18265;SDS011;9259;48.194;16.322;2024-01-30T07:29:25;25.83;;;11.80;;
18265;SDS011;9259;48.194;16.322;2024-01-30T07:31:53;27.50;;;11.83;;
18265;SDS011;9259;48.194;16.322;2024-01-30T07:34:22;31.97;;;12.33;;
18265;SDS011;9259;48.194;16.322;2024-01-30T07:36:50;28.23;;;12.27;;
18265;SDS011;9259;48.194;16.322;2024-01-30T07:39:18;29.47;;;12.27;;
18265;SDS011;9259;48.194;16.322;2024-01-30T07:41:46;28.60;;;11.90;;
18265;SDS011;9259;48.194;16.322;2024-01-30T07:44:14;27.53;;;11.60;;
18265;SDS011;9259;48.194;16.322;2024-01-30T07:46:42;29.00;;;11.53;;
18265;SDS011;9259;48.194;16.322;2024-01-30T07:49:10;25.57;;;11.30;;
18265;SDS011;9259;48.194;16.322;2024-01-30T07:51:41;25.17;;;11.60;;
18265;SDS011;9259;48.194;16.322;2024-01-30T07:54:13;31.63;;;12.23;;
18265;SDS011;9259;48.194;16.322;2024-01-30T07:56:41;28.20;;;12.03;;
18265;SDS011;9259;48.194;16.322;2024-01-30T07:59:09;24.00;;;11.63;;
18265;SDS011;9259;48.194;16.322;2024-01-30T08:01:37;28.93;;;11.63;;
18265;SDS011;9259;48.194;16.322;2024-01-30T08:04:06;27.57;;;11.63;;
18265;SDS011;9259;48.194;16.322;2024-01-30T08:06:33;22.10;;;11.87;;
18265;SDS011;9259;48.194;16.322;2024-01-30T08:09:03;29.67;;;12.00;;
18265;SDS011;9259;48.194;16.322;2024-01-30T08:11:31;27.13;;;11.37;;
18265;SDS011;9259;48.194;16.322;2024-01-30T08:13:59;23.33;;;10.17;;
18265;SDS011;9259;48.194;16.322;2024-01-30T08:16:27;23.13;;;11.00;;
18265;SDS011;9259;48.194;16.322;2024-01-30T08:18:55;28.00;;;11.77;;
18265;SDS011;9259;48.194;16.322;2024-01-30T08:21:23;25.97;;;12.00;;
18265;SDS011;9259;48.194;16.322;2024-01-30T08:23:51;23.33;;;10.23;;
18265;SDS011;9259;48.194;16.322;2024-01-30T08:26:20;24.37;;;10.43;;
18265;SDS011;9259;48.194;16.322;2024-01-30T08:28:48;26.73;;;11.97;;
18265;SDS011;9259;48.194;16.322;2024-01-30T08:31:16;22.50;;;9.87;;
18265;SDS011;9259;48.194;16.322;2024-01-30T08:33:43;21.53;;;10.63;;
18265;SDS011;9259;48.194;16.322;2024-01-30T08:36:11;23.20;;;10.50;;
18265;SDS011;9259;48.194;16.322;2024-01-30T08:38:39;20.53;;;9.23;;
18265;SDS011;9259;48.194;16.322;2024-01-30T08:41:07;24.77;;;9.93;;
18265;SDS011;9259;48.194;16.322;2024-01-30T08:43:36;24.60;;;11.10;;
18265;SDS011;9259;48.194;16.322;2024-01-30T08:46:04;20.70;;;10.57;;
18265;SDS011;9259;48.194;16.322;2024-01-30T08:48:32;27.03;;;10.43;;
18265;SDS011;9259;48.194;16.322;2024-01-30T08:50:59;22.70;;;10.40;;
18265;SDS011;9259;48.194;16.322;2024-01-30T08:53:27;20.60;;;10.73;;
18265;SDS011;9259;48.194;16.322;2024-01-30T08:55:55;22.17;;;10.53;;
18265;SDS011;9259;48.194;16.322;2024-01-30T08:58:24;22.83;;;11.27;;
18265;SDS011;9259;48.194;16.322;2024-01-30T09:00:54;24.97;;;9.70;;
18265;SDS011;9259;48.194;16.322;2024-01-30T09:03:21;27.07;;;10.70;;
18265;SDS011;9259;48.194;16.322;2024-01-30T09:05:49;25.33;;;10.50;;
18265;SDS011;9259;48.194;16.322;2024-01-30T09:08:17;23.43;;;11.03;;
18265;SDS011;9259;48.194;16.322;2024-01-30T09:10:45;25.50;;;10.13;;
18265;SDS011;9259;48.194;16.322;2024-01-30T09:13:13;20.50;;;10.50;;
18265;SDS011;9259;48.194;16.322;2024-01-30T09:15:41;23.03;;;11.17;;
18265;SDS011;9259;48.194;16.322;2024-01-30T09:18:11;21.93;;;10.17;;
18265;SDS011;9259;48.194;16.322;2024-01-30T09:20:38;24.67;;;10.07;;
18265;SDS011;9259;48.194;16.322;2024-01-30T09:23:06;21.63;;;9.80;;
18265;SDS011;9259;48.194;16.322;2024-01-30T09:25:34;30.30;;;11.50;;
18265;SDS011;9259;48.194;16.322;2024-01-30T09:28:02;24.00;;;10.77;;
18265;SDS011;9259;48.194;16.322;2024-01-30T09:30:30;22.83;;;10.33;;
18265;SDS011;9259;48.194;16.322;2024-01-30T09:32:58;24.33;;;10.80;;
18265;SDS011;9259;48.194;16.322;2024-01-30T09:35:28;20.07;;;9.93;;
18265;SDS011;9259;48.194;16.322;2024-01-30T09:37:55;23.13;;;10.60;;
18265;SDS011;9259;48.194;16.322;2024-01-30T09:40:23;23.20;;;10.07;;
18265;SDS011;9259;48.194;16.322;2024-01-30T09:42:51;20.60;;;10.27;;
18265;SDS011;9259;48.194;16.322;2024-01-30T09:45:23;24.10;;;9.93;;
18265;SDS011;9259;48.194;16.322;2024-01-30T09:47:52;22.83;;;9.27;;
18265;SDS011;9259;48.194;16.322;2024-01-30T09:50:20;23.43;;;9.67;;
18265;SDS011;9259;48.194;16.322;2024-01-30T09:52:49;22.33;;;10.40;;
18265;SDS011;9259;48.194;16.322;2024-01-30T09:55:20;22.13;;;10.63;;
18265;SDS011;9259;48.194;16.322;2024-01-30T09:57:48;17.27;;;10.07;;
18265;SDS011;9259;48.194;16.322;2024-01-30T10:00:16;20.50;;;10.27;;
18265;SDS011;9259;48.194;16.322;2024-01-30T10:02:45;22.03;;;10.67;;
18265;SDS011;9259;48.194;16.322;2024-01-30T10:05:14;21.07;;;11.07;;
18265;SDS011;9259;48.194;16.322;2024-01-30T10:07:54;24.47;;;10.43;;
18265;SDS011;9259;48.194;16.322;2024-01-30T10:10:24;21.37;;;10.83;;
18265;SDS011;9259;48.194;16.322;2024-01-30T10:12:52;21.30;;;10.47;;
18265;SDS011;9259;48.194;16.322;2024-01-30T10:15:19;26.33;;;11.10;;
18265;SDS011;9259;48.194;16.322;2024-01-30T10:17:47;26.53;;;10.47;;
18265;SDS011;9259;48.194;16.322;2024-01-30T10:20:15;22.20;;;11.20;;
18265;SDS011;9259;48.194;16.322;2024-01-30T10:22:43;23.73;;;11.23;;
18265;SDS011;9259;48.194;16.322;2024-01-30T10:25:13;21.73;;;10.43;;
18265;SDS011;9259;48.194;16.322;2024-01-30T10:27:42;24.10;;;10.57;;
18265;SDS011;9259;48.194;16.322;2024-01-30T10:30:10;22.77;;;10.97;;
18265;SDS011;9259;48.194;16.322;2024-01-30T10:32:38;21.87;;;9.93;;
18265;SDS011;9259;48.194;16.322;2024-01-30T10:35:06;20.17;;;10.70;;
18265;SDS011;9259;48.194;16.322;2024-01-30T10:37:34;20.20;;;10.13;;
18265;SDS011;9259;48.194;16.322;2024-01-30T10:40:03;25.37;;;11.13;;
18265;SDS011;9259;48.194;16.322;2024-01-30T10:42:33;19.80;;;10.77;;
18265;SDS011;9259;48.194;16.322;2024-01-30T10:45:06;20.83;;;10.13;;
18265;SDS011;9259;48.194;16.322;2024-01-30T10:47:35;24.80;;;10.13;;
18265;SDS011;9259;48.194;16.322;2024-01-30T10:50:04;22.50;;;10.67;;
18265;SDS011;9259;48.194;16.322;2024-01-30T10:52:33;21.57;;;9.70;;
18265;SDS011;9259;48.194;16.322;2024-01-30T10:55:01;21.13;;;9.63;;
18265;SDS011;9259;48.194;16.322;2024-01-30T10:57:35;21.33;;;10.33;;
18265;SDS011;9259;48.194;16.322;2024-01-30T11:00:04;21.33;;;10.07;;
18265;SDS011;9259;48.194;16.322;2024-01-30T11:02:37;20.63;;;9.70;;
18265;SDS011;9259;48.194;16.322;2024-01-30T11:05:07;26.10;;;10.27;;
18265;SDS011;9259;48.194;16.322;2024-01-30T11:07:35;23.07;;;10.47;;
18265;SDS011;9259;48.194;16.322;2024-01-30T11:10:06;21.87;;;10.67;;
18265;SDS011;9259;48.194;16.322;2024-01-30T11:12:39;21.27;;;10.13;;
18265;SDS011;9259;48.194;16.322;2024-01-30T11:15:09;19.20;;;8.97;;
18265;SDS011;9259;48.194;16.322;2024-01-30T11:17:40;21.03;;;9.30;;
18265;SDS011;9259;48.194;16.322;2024-01-30T11:20:14;18.30;;;9.10;;
18265;SDS011;9259;48.194;16.322;2024-01-30T11:22:45;15.87;;;8.90;;
18265;SDS011;9259;48.194;16.322;2024-01-30T11:25:14;17.63;;;9.10;;
18265;SDS011;9259;48.194;16.322;2024-01-30T11:27:44;16.00;;;9.00;;
18265;SDS011;9259;48.194;16.322;2024-01-30T11:30:20;19.43;;;9.20;;
18265;SDS011;9259;48.194;16.322;2024-01-30T11:33:02;19.47;;;8.77;;
18265;SDS011;9259;48.194;16.322;2024-01-30T11:35:32;15.37;;;8.43;;
18265;SDS011;9259;48.194;16.322;2024-01-30T11:38:02;16.93;;;8.27;;
18265;SDS011;9259;48.194;16.322;2024-01-30T11:40:31;18.10;;;8.77;;
18265;SDS011;9259;48.194;16.322;2024-01-30T11:43:01;16.80;;;8.10;;
18265;SDS011;9259;48.194;16.322;2024-01-30T11:45:31;18.57;;;8.60;;
18265;SDS011;9259;48.194;16.322;2024-01-30T11:48:00;17.83;;;8.20;;
18265;SDS011;9259;48.194;16.322;2024-01-30T11:50:29;16.70;;;8.63;;
18265;SDS011;9259;48.194;16.322;2024-01-30T11:52:57;19.00;;;9.03;;
18265;SDS011;9259;48.194;16.322;2024-01-30T11:55:26;17.90;;;8.93;;
18265;SDS011;9259;48.194;16.322;2024-01-30T11:57:54;16.47;;;7.87;;
18265;SDS011;9259;48.194;16.322;2024-01-30T12:00:24;16.60;;;8.97;;
18265;SDS011;9259;48.194;16.322;2024-01-30T12:02:52;19.47;;;8.47;;
18265;SDS011;9259;48.194;16.322;2024-01-30T12:05:22;13.73;;;8.53;;
18265;SDS011;9259;48.194;16.322;2024-01-30T12:07:50;19.13;;;8.53;;
18265;SDS011;9259;48.194;16.322;2024-01-30T12:10:18;15.67;;;8.27;;
18265;SDS011;9259;48.194;16.322;2024-01-30T12:12:48;19.67;;;9.27;;
18265;SDS011;9259;48.194;16.322;2024-01-30T12:15:18;19.30;;;9.40;;
18265;SDS011;9259;48.194;16.322;2024-01-30T12:17:49;20.43;;;9.33;;
18265;SDS011;9259;48.194;16.322;2024-01-30T12:20:18;22.57;;;8.63;;
18265;SDS011;9259;48.194;16.322;2024-01-30T12:22:47;19.23;;;9.00;;
18265;SDS011;9259;48.194;16.322;2024-01-30T12:25:17;17.57;;;9.27;;
18265;SDS011;9259;48.194;16.322;2024-01-30T12:27:47;22.33;;;8.70;;
18265;SDS011;9259;48.194;16.322;2024-01-30T12:30:17;22.17;;;9.37;;
18265;SDS011;9259;48.194;16.322;2024-01-30T12:32:47;19.30;;;9.00;;
18265;SDS011;9259;48.194;16.322;2024-01-30T12:35:18;15.30;;;7.40;;
18265;SDS011;9259;48.194;16.322;2024-01-30T12:37:47;19.33;;;8.70;;
18265;SDS011;9259;48.194;16.322;2024-01-30T12:40:16;16.63;;;8.60;;
18265;SDS011;9259;48.194;16.322;2024-01-30T12:42:46;17.63;;;8.63;;
18265;SDS011;9259;48.194;16.322;2024-01-30T12:45:15;20.13;;;8.83;;
18265;SDS011;9259;48.194;16.322;2024-01-30T12:47:46;17.47;;;9.07;;
18265;SDS011;9259;48.194;16.322;2024-01-30T12:50:15;18.63;;;8.80;;
18265;SDS011;9259;48.194;16.322;2024-01-30T12:52:43;18.67;;;9.20;;
18265;SDS011;9259;48.194;16.322;2024-01-30T12:55:11;25.13;;;9.30;;
18265;SDS011;9259;48.194;16.322;2024-01-30T12:57:38;20.40;;;9.07;;
18265;SDS011;9259;48.194;16.322;2024-01-30T13:00:07;16.90;;;8.07;;
18265;SDS011;9259;48.194;16.322;2024-01-30T13:02:36;14.20;;;8.07;;
18265;SDS011;9259;48.194;16.322;2024-01-30T13:05:04;16.67;;;8.10;;
18265;SDS011;9259;48.194;16.322;2024-01-30T13:07:34;15.87;;;8.67;;
18265;SDS011;9259;48.194;16.322;2024-01-30T13:10:02;18.47;;;9.53;;
18265;SDS011;9259;48.194;16.322;2024-01-30T13:12:32;17.93;;;9.40;;
18265;SDS011;9259;48.194;16.322;2024-01-30T13:15:00;19.83;;;8.70;;
18265;SDS011;9259;48.194;16.322;2024-01-30T13:17:29;17.53;;;9.10;;
18265;SDS011;9259;48.194;16.322;2024-01-30T13:19:57;21.43;;;9.23;;
18265;SDS011;9259;48.194;16.322;2024-01-30T13:22:25;17.17;;;9.13;;
18265;SDS011;9259;48.194;16.322;2024-01-30T13:24:54;19.63;;;9.37;;
18265;SDS011;9259;48.194;16.322;2024-01-30T13:27:22;18.47;;;8.60;;
18265;SDS011;9259;48.194;16.322;2024-01-30T13:29:50;17.77;;;9.27;;
18265;SDS011;9259;48.194;16.322;2024-01-30T13:32:17;17.37;;;9.07;;
18265;SDS011;9259;48.194;16.322;2024-01-30T13:34:45;16.63;;;8.33;;
18265;SDS011;9259;48.194;16.322;2024-01-30T13:37:13;17.67;;;9.30;;
18265;SDS011;9259;48.194;16.322;2024-01-30T13:39:41;20.83;;;8.43;;
18265;SDS011;9259;48.194;16.322;2024-01-30T13:42:10;22.00;;;7.77;;
18265;SDS011;9259;48.194;16.322;2024-01-30T13:44:38;16.47;;;8.37;;
18265;SDS011;9259;48.194;16.322;2024-01-30T13:47:06;15.43;;;7.67;;
18265;SDS011;9259;48.194;16.322;2024-01-30T13:49:34;21.20;;;8.37;;
18265;SDS011;9259;48.194;16.322;2024-01-30T13:52:02;16.87;;;8.90;;
18265;SDS011;9259;48.194;16.322;2024-01-30T13:54:30;17.23;;;8.03;;
18265;SDS011;9259;48.194;16.322;2024-01-30T13:56:58;18.53;;;8.57;;
18265;SDS011;9259;48.194;16.322;2024-01-30T13:59:27;21.27;;;8.87;;
18265;SDS011;9259;48.194;16.322;2024-01-30T14:01:55;23.23;;;8.37;;
18265;SDS011;9259;48.194;16.322;2024-01-30T14:04:23;19.03;;;8.87;;
18265;SDS011;9259;48.194;16.322;2024-01-30T14:06:51;18.37;;;8.43;;
18265;SDS011;9259;48.194;16.322;2024-01-30T14:09:19;21.70;;;8.80;;
18265;SDS011;9259;48.194;16.322;2024-01-30T14:11:47;19.43;;;8.57;;
18265;SDS011;9259;48.194;16.322;2024-01-30T14:14:14;19.03;;;6.90;;
18265;SDS011;9259;48.194;16.322;2024-01-30T14:16:44;19.23;;;8.87;;
18265;SDS011;9259;48.194;16.322;2024-01-30T14:19:11;18.10;;;8.80;;
18265;SDS011;9259;48.194;16.322;2024-01-30T14:21:39;20.17;;;8.83;;
18265;SDS011;9259;48.194;16.322;2024-01-30T14:24:07;19.50;;;8.67;;
18265;SDS011;9259;48.194;16.322;2024-01-30T14:26:36;19.00;;;8.43;;
18265;SDS011;9259;48.194;16.322;2024-01-30T14:29:04;23.27;;;8.83;;
18265;SDS011;9259;48.194;16.322;2024-01-30T14:31:31;18.13;;;8.50;;
18265;SDS011;9259;48.194;16.322;2024-01-30T14:34:01;19.50;;;9.23;;